createdAt,value
2022-08-27T00:00:08.255Z,14.61
2022-08-27T00:01:08.767Z,14.44
2022-08-27T00:02:08.341Z,14.28
2022-08-27T00:03:08.260Z,14.28
2022-08-27T00:04:08.351Z,14.61
2022-08-27T00:05:08.263Z,14.44
2022-08-27T00:06:08.308Z,14.28
2022-08-27T00:07:08.262Z,14.44
2022-08-27T00:08:08.267Z,14.11
2022-08-27T00:09:08.264Z,14.28
2022-08-27T00:10:08.267Z,14.44
2022-08-27T00:11:08.338Z,14.44
2022-08-27T00:12:08.263Z,14.28
2022-08-27T00:13:08.261Z,14.61
2022-08-27T00:14:08.274Z,14.61
2022-08-27T00:15:08.260Z,14.61
2022-08-27T00:16:08.296Z,14.78
2022-08-27T00:17:08.267Z,14.61
2022-08-27T00:18:08.269Z,14.44
2022-08-27T00:19:08.268Z,14.61
2022-08-27T00:20:08.268Z,14.44
2022-08-27T00:21:08.271Z,14.44
2022-08-27T00:22:08.280Z,14.61
2022-08-27T00:23:08.275Z,14.61
2022-08-27T00:24:08.270Z,14.44
2022-08-27T00:25:08.271Z,14.61
2022-08-27T00:26:08.267Z,14.44
2022-08-27T00:27:08.269Z,14.61
2022-08-27T00:28:08.369Z,14.61
2022-08-27T00:29:08.280Z,14.28
2022-08-27T00:30:08.279Z,14.61
2022-08-27T00:31:08.274Z,14.61
2022-08-27T00:32:08.324Z,14.28
2022-08-27T00:33:08.273Z,14.44
2022-08-27T00:34:08.275Z,14.44
2022-08-27T00:35:08.273Z,14.61
2022-08-27T00:36:08.275Z,14.44
2022-08-27T00:37:08.269Z,14.44
2022-08-27T00:38:08.278Z,14.11
2022-08-27T00:39:08.276Z,14
2022-08-27T00:40:08.342Z,14.11
2022-08-27T00:41:08.274Z,14.11
2022-08-27T00:42:08.276Z,14.28
2022-08-27T00:43:08.269Z,14.28
2022-08-27T00:44:08.279Z,14.28
2022-08-27T00:45:08.275Z,14.28
2022-08-27T00:46:08.322Z,14.28
2022-08-27T00:47:08.283Z,14.11
2022-08-27T00:48:08.406Z,14.11
2022-08-27T00:49:08.273Z,14.11
2022-08-27T00:50:08.281Z,14.28
2022-08-27T00:51:08.275Z,14.11
2022-08-27T00:52:08.286Z,14.44
2022-08-27T00:53:08.282Z,14.11
2022-08-27T00:54:08.280Z,14.44
2022-08-27T00:55:08.283Z,14.61
2022-08-27T00:56:08.283Z,14.78
2022-08-27T00:57:08.289Z,14.61
2022-08-27T00:58:08.293Z,14.44
2022-08-27T00:59:08.294Z,14.78
2022-08-27T01:00:08.284Z,14.11
2022-08-27T01:01:08.340Z,14.44
2022-08-27T01:02:08.379Z,14.61
2022-08-27T01:03:08.287Z,14.28
2022-08-27T01:04:08.289Z,14.78
2022-08-27T01:05:08.288Z,14.11
2022-08-27T01:06:08.289Z,14.44
2022-08-27T01:07:08.290Z,14.28
2022-08-27T01:08:08.325Z,14.44
2022-08-27T01:09:08.306Z,14.44
2022-08-27T01:10:08.302Z,14.61
2022-08-27T01:11:08.298Z,14.44
2022-08-27T01:12:08.291Z,14.28
2022-08-27T01:13:08.300Z,14.61
2022-08-27T01:14:08.302Z,14.78
2022-08-27T01:15:08.303Z,14.44
2022-08-27T01:16:08.321Z,14.61
2022-08-27T01:17:08.305Z,14.78
2022-08-27T01:18:08.308Z,14.61
2022-08-27T01:19:08.311Z,14.61
2022-08-27T01:20:08.310Z,14.28
2022-08-27T01:21:08.311Z,14.78
2022-08-27T01:22:08.310Z,14.61
2022-08-27T01:23:08.312Z,14.44
2022-08-27T01:24:08.321Z,14.61
2022-08-27T01:25:08.317Z,14.61
2022-08-27T01:26:08.324Z,14.44
2022-08-27T01:27:13.713Z,14.28
2022-08-27T01:28:08.358Z,14.44
2022-08-27T01:29:08.323Z,14.78
2022-08-27T01:30:08.331Z,14.44
2022-08-27T01:31:08.405Z,14.44
2022-08-27T01:32:08.333Z,14.61
2022-08-27T01:33:08.326Z,14.78
2022-08-27T01:34:08.337Z,14.78
2022-08-27T01:35:08.335Z,14.61
2022-08-27T01:36:08.343Z,14.44
2022-08-27T01:37:08.343Z,14.44
2022-08-27T01:38:09.407Z,14.61
2022-08-27T01:39:08.343Z,14.78
2022-08-27T01:40:08.378Z,14.61
2022-08-27T01:41:08.342Z,14.44
2022-08-27T01:42:08.345Z,14.78
2022-08-27T01:43:08.348Z,14.78
2022-08-27T01:44:08.352Z,14.61
2022-08-27T01:45:08.361Z,14.78
2022-08-27T01:46:08.355Z,14.78
2022-08-27T01:47:08.353Z,14.61
2022-08-27T01:48:08.353Z,14.78
2022-08-27T01:49:08.347Z,14.78
2022-08-27T01:50:08.352Z,14.78
2022-08-27T01:51:08.353Z,14.61
2022-08-27T01:52:08.354Z,14.78
2022-08-27T01:53:08.357Z,14.78
2022-08-27T01:54:08.366Z,14.78
2022-08-27T01:55:08.365Z,14.78
2022-08-27T01:56:08.362Z,14.78
2022-08-27T01:57:08.367Z,14.78
2022-08-27T01:58:08.371Z,14.61
2022-08-27T01:59:08.367Z,14.78
2022-08-27T02:00:08.371Z,14.78
2022-08-27T02:01:08.434Z,14.28
2022-08-27T02:02:08.417Z,14.78
2022-08-27T02:03:08.386Z,14.78
2022-08-27T02:04:08.383Z,14.61
2022-08-27T02:05:08.381Z,14.61
2022-08-27T02:06:08.374Z,14.44
2022-08-27T02:07:08.383Z,14.61
2022-08-27T02:08:08.392Z,14.39
2022-08-27T02:09:08.390Z,14.61
2022-08-27T02:10:08.387Z,14.78
2022-08-27T02:11:08.437Z,14.78
2022-08-27T02:12:08.387Z,14.78
2022-08-27T02:13:08.390Z,14.61
2022-08-27T02:14:10.102Z,14.78
2022-08-27T02:15:08.393Z,14.78
2022-08-27T02:16:08.417Z,14.44
2022-08-27T02:17:08.393Z,14.78
2022-08-27T02:18:08.395Z,14.78
2022-08-27T02:19:09.727Z,14.61
2022-08-27T02:20:08.392Z,14.78
2022-08-27T02:21:08.398Z,14.61
2022-08-27T02:22:08.393Z,14.61
2022-08-27T02:23:08.400Z,14.78
2022-08-27T02:24:08.403Z,14.61
2022-08-27T02:25:10.291Z,14.28
2022-08-27T02:26:08.405Z,14.61
2022-08-27T02:27:08.405Z,14.61
2022-08-27T02:28:08.414Z,14.28
2022-08-27T02:29:08.413Z,14.28
2022-08-27T02:30:08.403Z,14.11
2022-08-27T02:31:08.499Z,14.44
2022-08-27T02:32:17.833Z,14.11
2022-08-27T02:33:08.415Z,14.44
2022-08-27T02:34:08.418Z,14.44
2022-08-27T02:35:08.410Z,14.61
2022-08-27T02:36:08.410Z,14.28
2022-08-27T02:37:08.408Z,14.61
2022-08-27T02:38:08.505Z,14.44
2022-08-27T02:39:08.414Z,14.44
2022-08-27T02:40:08.453Z,14.28
2022-08-27T02:41:08.421Z,14.78
2022-08-27T02:42:08.416Z,14.28
2022-08-27T02:43:08.413Z,14.44
2022-08-27T02:44:10.208Z,14.28
2022-08-27T02:45:08.424Z,14.28
2022-08-27T02:46:08.473Z,14.28
2022-08-27T02:47:08.426Z,14.78
2022-08-27T02:48:08.510Z,14.44
2022-08-27T02:49:08.423Z,14.28
2022-08-27T02:50:08.433Z,14.61
2022-08-27T02:51:08.432Z,14.61
2022-08-27T02:52:08.425Z,14.78
2022-08-27T02:53:08.428Z,14.61
2022-08-27T02:54:09.641Z,14.44
2022-08-27T02:55:08.436Z,14.78
2022-08-27T02:56:08.428Z,14.78
2022-08-27T02:57:08.441Z,14.44
2022-08-27T02:58:08.446Z,14.61
2022-08-27T02:59:08.431Z,14.44
2022-08-27T03:00:08.442Z,14.11
2022-08-27T03:01:11.323Z,14.44
2022-08-27T03:02:08.564Z,14.44
2022-08-27T03:03:08.440Z,14.78
2022-08-27T03:04:08.445Z,14.61
2022-08-27T03:05:08.447Z,14.78
2022-08-27T03:06:08.443Z,14.44
2022-08-27T03:07:08.442Z,14.61
2022-08-27T03:08:08.457Z,14.61
2022-08-27T03:09:08.447Z,14.44
2022-08-27T03:10:08.446Z,14.61
2022-08-27T03:11:08.440Z,14.78
2022-08-27T03:12:08.440Z,14.78
2022-08-27T03:13:08.442Z,14.78
2022-08-27T03:14:08.444Z,14.61
2022-08-27T03:15:08.444Z,14.78
2022-08-27T03:16:08.503Z,14.44
2022-08-27T03:17:08.445Z,14.78
2022-08-27T03:18:08.453Z,14.78
2022-08-27T03:19:08.446Z,14.78
2022-08-27T03:20:08.448Z,14.78
2022-08-27T03:21:08.451Z,14.78
2022-08-27T03:22:08.446Z,14.78
2022-08-27T03:23:08.459Z,14.78
2022-08-27T03:24:09.319Z,14.61
2022-08-27T03:25:08.447Z,14.78
2022-08-27T03:26:08.451Z,14.44
2022-08-27T03:27:08.457Z,14.78
2022-08-27T03:28:09.575Z,14.61
2022-08-27T03:29:08.453Z,14.61
2022-08-27T03:30:08.454Z,14.78
2022-08-27T03:31:08.508Z,14.78
2022-08-27T03:32:08.465Z,14.44
2022-08-27T03:33:08.469Z,14.78
2022-08-27T03:34:08.465Z,14.61
2022-08-27T03:35:08.456Z,14.61
2022-08-27T03:36:08.461Z,14.28
2022-08-27T03:37:08.466Z,14.61
2022-08-27T03:38:08.557Z,14.78
2022-08-27T03:39:08.463Z,14.44
2022-08-27T03:40:08.505Z,14.44
2022-08-27T03:41:08.465Z,14.44
2022-08-27T03:42:08.475Z,14.61
2022-08-27T03:43:08.470Z,14.78
2022-08-27T03:44:08.471Z,14.28
2022-08-27T03:45:08.472Z,14.78
2022-08-27T03:46:08.529Z,14.44
2022-08-27T03:47:08.483Z,14.44
2022-08-27T03:48:08.522Z,14.44
2022-08-27T03:49:08.476Z,14.28
2022-08-27T03:50:08.483Z,14.44
2022-08-27T03:51:08.477Z,14.44
2022-08-27T03:52:08.483Z,14.28
2022-08-27T03:53:08.479Z,14.28
2022-08-27T03:54:08.480Z,14.28
2022-08-27T03:55:08.481Z,14.11
2022-08-27T03:56:08.489Z,14.28
2022-08-27T03:57:08.490Z,14.28
2022-08-27T03:58:08.503Z,14.11
2022-08-27T03:59:08.492Z,14.11
2022-08-27T04:00:08.487Z,14.28
2022-08-27T04:01:08.492Z,14.11
2022-08-27T04:02:08.562Z,14.11
2022-08-27T04:03:08.584Z,14.28
2022-08-27T04:04:08.496Z,14.11
2022-08-27T04:05:08.490Z,14.28
2022-08-27T04:06:08.484Z,14.11
2022-08-27T04:07:08.491Z,14.28
2022-08-27T04:08:08.478Z,14.11
2022-08-27T04:09:08.486Z,14.28
2022-08-27T04:10:08.496Z,14.28
2022-08-27T04:11:08.492Z,14.44
2022-08-27T04:12:08.492Z,14.11
2022-08-27T04:13:08.488Z,14.28
2022-08-27T04:14:14.588Z,14
2022-08-27T04:15:08.496Z,14
2022-08-27T04:16:08.539Z,14.11
2022-08-27T04:17:08.499Z,14.11
2022-08-27T04:18:08.591Z,14
2022-08-27T04:19:08.494Z,14
2022-08-27T04:20:31.587Z,14.11
2022-08-27T04:21:08.498Z,14.28
2022-08-27T04:22:08.498Z,14
2022-08-27T04:23:08.493Z,14.28
2022-08-27T04:24:08.502Z,14
2022-08-27T04:25:09.970Z,13.83
2022-08-27T04:26:08.502Z,14.11
2022-08-27T04:27:08.498Z,14.28
2022-08-27T04:28:08.505Z,14.11
2022-08-27T04:29:08.513Z,14.11
2022-08-27T04:30:08.511Z,14.11
2022-08-27T04:31:11.896Z,14.11
2022-08-27T04:32:08.512Z,14.11
2022-08-27T04:33:08.507Z,14.28
2022-08-27T04:34:08.518Z,14.11
2022-08-27T04:35:08.513Z,14.11
2022-08-27T04:36:08.515Z,14.28
2022-08-27T04:37:08.509Z,14.28
2022-08-27T04:38:08.531Z,14.11
2022-08-27T04:39:08.516Z,13.83
2022-08-27T04:40:08.584Z,14.28
2022-08-27T04:41:08.515Z,14.28
2022-08-27T04:42:08.519Z,14.11
2022-08-27T04:43:08.512Z,14.44
2022-08-27T04:44:08.511Z,14.28
2022-08-27T04:45:08.512Z,14.28
2022-08-27T04:46:08.537Z,14.28
2022-08-27T04:47:08.512Z,14.28
2022-08-27T04:48:08.590Z,14.11
2022-08-27T04:49:10.393Z,14.61
2022-08-27T04:50:08.519Z,14.61
2022-08-27T04:51:08.508Z,14.61
2022-08-27T04:52:08.520Z,14.61
2022-08-27T04:53:08.515Z,14.61
2022-08-27T04:54:08.533Z,14.61
2022-08-27T04:55:08.515Z,14.44
2022-08-27T04:56:14.274Z,14.61
2022-08-27T04:57:08.525Z,14.78
2022-08-27T04:58:08.552Z,14.44
2022-08-27T04:59:08.520Z,14.78
2022-08-27T05:00:08.526Z,14.61
2022-08-27T05:01:08.646Z,14.44
2022-08-27T05:02:08.519Z,14.61
2022-08-27T05:03:08.524Z,14.44
2022-08-27T05:04:08.526Z,14.78
2022-08-27T05:05:09.308Z,14.61
2022-08-27T05:06:08.522Z,14.44
2022-08-27T05:07:08.528Z,14.44
2022-08-27T05:08:08.520Z,14.61
2022-08-27T05:09:08.520Z,14.44
2022-08-27T05:10:08.543Z,14.44
2022-08-27T05:11:08.524Z,14.61
2022-08-27T05:12:08.520Z,14.78
2022-08-27T05:13:08.531Z,14.78
2022-08-27T05:14:08.526Z,14.44
2022-08-27T05:15:08.521Z,14.61
2022-08-27T05:16:08.594Z,14.78
2022-08-27T05:17:08.526Z,14.78
2022-08-27T05:18:08.549Z,14.61
2022-08-27T05:19:08.523Z,14.78
2022-08-27T05:20:08.529Z,14.78
2022-08-27T05:21:08.528Z,14.44
2022-08-27T05:22:08.529Z,14.89
2022-08-27T05:23:08.522Z,15.06
2022-08-27T05:24:08.526Z,15.17
2022-08-27T05:25:08.527Z,14.89
2022-08-27T05:26:08.525Z,15.17
2022-08-27T05:27:09.850Z,15.17
2022-08-27T05:28:08.678Z,15.17
2022-08-27T05:29:08.528Z,15.17
2022-08-27T05:30:08.534Z,15.28
2022-08-27T05:31:08.574Z,14.89
2022-08-27T05:32:08.534Z,15.61
2022-08-27T05:33:08.536Z,15.61
2022-08-27T05:34:10.063Z,15.61
2022-08-27T05:35:08.842Z,16.06
2022-08-27T05:36:08.535Z,15.89
2022-08-27T05:37:08.532Z,15.78
2022-08-27T05:38:08.602Z,16.06
2022-08-27T05:39:08.535Z,16.06
2022-08-27T05:40:08.563Z,16.06
2022-08-27T05:41:08.534Z,16.06
2022-08-27T05:42:08.538Z,15.78
2022-08-27T05:43:08.528Z,15.89
2022-08-27T05:44:24.391Z,15.78
2022-08-27T05:45:08.528Z,15.61
2022-08-27T05:46:08.599Z,15.44
2022-08-27T05:47:08.534Z,15.44
2022-08-27T05:48:08.578Z,15.44
2022-08-27T05:49:08.532Z,15.61
2022-08-27T05:50:08.523Z,15.61
2022-08-27T05:51:08.531Z,15.89
2022-08-27T05:52:08.534Z,15.78
2022-08-27T05:53:08.535Z,15.89
2022-08-27T05:54:08.984Z,16.06
2022-08-27T05:55:08.536Z,16.06
2022-08-27T05:56:08.528Z,16.56
2022-08-27T05:57:08.530Z,16.72
2022-08-27T05:58:08.541Z,16.72
2022-08-27T05:59:08.731Z,17
2022-08-27T06:00:08.537Z,16.89
2022-08-27T06:01:10.387Z,17.17
2022-08-27T06:02:08.550Z,16.89
2022-08-27T06:03:08.527Z,17
2022-08-27T06:04:08.600Z,17.67
2022-08-27T06:05:08.588Z,17.5
2022-08-27T06:06:08.536Z,17.67
2022-08-27T06:07:08.527Z,17.67
2022-08-27T06:08:08.536Z,17.94
2022-08-27T06:09:08.532Z,17.94
2022-08-27T06:10:08.722Z,18.44
2022-08-27T06:11:08.530Z,18.44
2022-08-27T06:12:08.532Z,18.94
2022-08-27T06:13:08.530Z,19.11
2022-08-27T06:14:08.534Z,20.06
2022-08-27T06:15:08.545Z,20.22
2022-08-27T06:16:08.566Z,20.83
2022-08-27T06:17:08.539Z,21.5
2022-08-27T06:18:08.546Z,21
2022-08-27T06:19:08.541Z,21.17
2022-08-27T06:20:08.548Z,21.72
2022-08-27T06:21:08.536Z,22.39
2022-08-27T06:22:10.210Z,22.56
2022-08-27T06:23:08.546Z,23.11
2022-08-27T06:24:08.555Z,22.39
2022-08-27T06:25:08.547Z,22.78
2022-08-27T06:26:08.554Z,22.94
2022-08-27T06:27:08.554Z,21.72
2022-08-27T06:28:08.543Z,21.17
2022-08-27T06:29:08.547Z,21.39
2022-08-27T06:30:08.552Z,21.5
2022-08-27T06:31:08.604Z,21.39
2022-08-27T06:32:08.556Z,20.83
2022-08-27T06:33:08.554Z,20.17
2022-08-27T06:34:08.564Z,20.11
2022-08-27T06:35:08.561Z,19.06
2022-08-27T06:36:08.563Z,18.78
2022-08-27T06:37:08.572Z,18.78
2022-08-27T06:38:08.568Z,19.06
2022-08-27T06:39:08.560Z,19.94
2022-08-27T06:40:08.612Z,19.94
2022-08-27T06:41:08.561Z,19.78
2022-08-27T06:42:08.563Z,19.94
2022-08-27T06:43:08.571Z,21
2022-08-27T06:44:08.576Z,20.83
2022-08-27T06:45:08.571Z,20.22
2022-08-27T06:46:08.599Z,18.94
2022-08-27T06:47:08.568Z,18.44
2022-08-27T06:48:08.654Z,18.44
2022-08-27T06:49:08.578Z,18.94
2022-08-27T06:50:08.577Z,18.94
2022-08-27T06:51:08.578Z,19.44
2022-08-27T06:52:08.582Z,19.44
2022-08-27T06:53:08.580Z,19.28
2022-08-27T06:54:08.578Z,18.78
2022-08-27T06:55:08.580Z,18.94
2022-08-27T06:56:08.586Z,18.44
2022-08-27T06:57:08.583Z,18.78
2022-08-27T06:58:08.582Z,18.28
2022-08-27T06:59:09.927Z,18.17
2022-08-27T07:00:08.583Z,17.94
2022-08-27T07:01:08.630Z,17.67
2022-08-27T07:02:08.624Z,17.83
2022-08-27T07:03:08.586Z,17.5
2022-08-27T07:04:08.584Z,17
2022-08-27T07:05:08.589Z,17.33
2022-08-27T07:06:08.583Z,17.5
2022-08-27T07:07:08.591Z,17.17
2022-08-27T07:08:08.593Z,17.17
2022-08-27T07:09:08.586Z,17
2022-08-27T07:10:08.587Z,17.5
2022-08-27T07:11:08.595Z,18.44
2022-08-27T07:12:08.596Z,20.22
2022-08-27T07:13:08.591Z,20.83
2022-08-27T07:14:08.594Z,21.89
2022-08-27T07:15:08.590Z,23.44
2022-08-27T07:16:08.704Z,24
2022-08-27T07:17:10.798Z,24
2022-08-27T07:18:08.621Z,22.94
2022-08-27T07:19:08.596Z,22.39
2022-08-27T07:20:08.598Z,23.67
2022-08-27T07:21:08.596Z,23.83
2022-08-27T07:22:08.596Z,23.67
2022-08-27T07:23:11.038Z,23.11
2022-08-27T07:24:08.604Z,22.78
2022-08-27T07:25:08.607Z,22.39
2022-08-27T07:26:08.603Z,22.39
2022-08-27T07:27:08.606Z,22.06
2022-08-27T07:28:08.610Z,21.39
2022-08-27T07:29:08.618Z,20.72
2022-08-27T07:30:08.605Z,20.33
2022-08-27T07:31:08.709Z,20.22
2022-08-27T07:32:08.619Z,19.28
2022-08-27T07:33:08.606Z,18.94
2022-08-27T07:34:08.617Z,19.56
2022-08-27T07:35:08.612Z,19.94
2022-08-27T07:36:08.620Z,19.94
2022-08-27T07:37:08.623Z,20.11
2022-08-27T07:38:08.619Z,19.78
2022-08-27T07:39:08.622Z,20.11
2022-08-27T07:40:08.667Z,19.56
2022-08-27T07:41:08.624Z,19.56
2022-08-27T07:42:08.629Z,19.28
2022-08-27T07:43:08.627Z,19.28
2022-08-27T07:44:08.626Z,19.06
2022-08-27T07:45:08.630Z,19.44
2022-08-27T07:46:08.692Z,19.28
2022-08-27T07:47:08.632Z,19.06
2022-08-27T07:48:08.634Z,19.44
2022-08-27T07:49:08.634Z,19.56
2022-08-27T07:50:08.636Z,19.44
2022-08-27T07:51:08.642Z,19.28
2022-08-27T07:52:08.644Z,18.94
2022-08-27T07:53:08.634Z,18.94
2022-08-27T07:54:08.646Z,19.44
2022-08-27T07:55:08.650Z,19.44
2022-08-27T07:56:08.644Z,19.44
2022-08-27T07:57:08.642Z,19.06
2022-08-27T07:58:11.093Z,19.44
2022-08-27T07:59:08.653Z,19.44
2022-08-27T08:00:08.656Z,18.94
2022-08-27T08:01:08.723Z,18.78
2022-08-27T08:02:08.720Z,19.28
2022-08-27T08:03:08.657Z,18.94
2022-08-27T08:04:08.654Z,18.61
2022-08-27T08:05:08.658Z,18.94
2022-08-27T08:06:08.650Z,18.61
2022-08-27T08:07:08.660Z,18.44
2022-08-27T08:08:08.663Z,18.78
2022-08-27T08:09:10.619Z,19.28
2022-08-27T08:10:08.659Z,19.06
2022-08-27T08:11:08.668Z,19.44
2022-08-27T08:12:08.669Z,19.44
2022-08-27T08:13:08.663Z,19.44
2022-08-27T08:14:08.666Z,19.28
2022-08-27T08:15:08.667Z,19.44
2022-08-27T08:16:08.670Z,19.44
2022-08-27T08:17:10.295Z,19.28
2022-08-27T08:18:08.675Z,19.56
2022-08-27T08:19:08.668Z,19.56
2022-08-27T08:20:21.629Z,18.78
2022-08-27T08:21:08.672Z,18.94
2022-08-27T08:22:08.675Z,18.44
2022-08-27T08:23:09.728Z,18.44
2022-08-27T08:24:08.679Z,18.28
2022-08-27T08:25:08.689Z,19.28
2022-08-27T08:26:08.679Z,19.28
2022-08-27T08:27:08.678Z,18.94
2022-08-27T08:28:08.711Z,18.94
2022-08-27T08:29:08.687Z,18.78
2022-08-27T08:30:08.687Z,18.78
2022-08-27T08:31:08.716Z,18.78
2022-08-27T08:32:08.676Z,18.28
2022-08-27T08:33:08.684Z,18.94
2022-08-27T08:34:08.689Z,18.94
2022-08-27T08:35:08.690Z,19.06
2022-08-27T08:36:08.697Z,19.06
2022-08-27T08:37:08.692Z,18.78
2022-08-27T08:38:08.701Z,19.06
2022-08-27T08:39:08.691Z,18.94
2022-08-27T08:40:08.753Z,18.78
2022-08-27T08:41:08.698Z,19.06
2022-08-27T08:42:08.694Z,19.44
2022-08-27T08:43:08.705Z,19.06
2022-08-27T08:44:08.700Z,19.44
2022-08-27T08:45:08.694Z,19.44
2022-08-27T08:46:08.738Z,19.44
2022-08-27T08:47:08.707Z,19.56
2022-08-27T08:48:08.711Z,19.44
2022-08-27T08:49:08.711Z,19.44
2022-08-27T08:50:08.704Z,19.78
2022-08-27T08:51:08.704Z,19.94
2022-08-27T08:52:08.721Z,20.72
2022-08-27T08:53:08.714Z,20.33
2022-08-27T08:54:08.710Z,20.56
2022-08-27T08:55:08.720Z,20.72
2022-08-27T08:56:08.707Z,21.39
2022-08-27T08:57:08.715Z,21.22
2022-08-27T08:58:08.715Z,21.22
2022-08-27T08:59:08.722Z,20.56
2022-08-27T09:00:08.722Z,20.56
2022-08-27T09:01:08.781Z,20.83
2022-08-27T09:02:12.726Z,20.83
2022-08-27T09:03:08.723Z,20.83
2022-08-27T09:04:08.769Z,20.22
2022-08-27T09:05:08.727Z,20.11
2022-08-27T09:06:08.722Z,20.11
2022-08-27T09:07:08.731Z,19.94
2022-08-27T09:08:32.307Z,20.11
2022-08-27T09:09:08.728Z,19.94
2022-08-27T09:10:08.725Z,20.22
2022-08-27T09:11:08.730Z,19.61
2022-08-27T09:12:08.722Z,19.44
2022-08-27T09:13:08.730Z,19.94
2022-08-27T09:14:12.863Z,20.28
2022-08-27T09:15:09.285Z,20.39
2022-08-27T09:16:08.730Z,20.11
2022-08-27T09:17:11.577Z,20.39
2022-08-27T09:18:08.734Z,19.83
2022-08-27T09:19:08.734Z,20.22
2022-08-27T09:20:08.736Z,20.11
2022-08-27T09:21:09.826Z,20.56
2022-08-27T09:22:08.737Z,20.56
2022-08-27T09:23:08.732Z,21.56
2022-08-27T09:24:08.740Z,20.83
2022-08-27T09:25:08.745Z,21.39
2022-08-27T09:26:08.737Z,21.56
2022-08-27T09:27:08.745Z,21.06
2022-08-27T09:28:08.739Z,20.56
2022-08-27T09:29:08.745Z,20.83
2022-08-27T09:30:08.742Z,21.22
2022-08-27T09:31:08.843Z,20.83
2022-08-27T09:32:08.747Z,21.39
2022-08-27T09:33:08.748Z,21.56
2022-08-27T09:34:08.745Z,20.83
2022-08-27T09:35:08.747Z,22.22
2022-08-27T09:36:08.746Z,23.11
2022-08-27T09:37:08.751Z,23.11
2022-08-27T09:38:08.757Z,23.11
2022-08-27T09:39:08.753Z,21.56
2022-08-27T09:40:13.439Z,21.22
2022-08-27T09:41:08.751Z,20.83
2022-08-27T09:42:08.751Z,20.22
2022-08-27T09:43:08.746Z,20.11
2022-08-27T09:44:08.745Z,20.22
2022-08-27T09:45:08.759Z,20.72
2022-08-27T09:46:08.791Z,21.06
2022-08-27T09:47:08.753Z,20.56
2022-08-27T09:48:08.813Z,20.39
2022-08-27T09:49:08.759Z,21.06
2022-08-27T09:50:08.752Z,22.06
2022-08-27T09:51:08.756Z,22.22
2022-08-27T09:52:08.749Z,21.56
2022-08-27T09:53:08.757Z,21.56
2022-08-27T09:54:08.765Z,21.56
2022-08-27T09:55:08.765Z,22.06
2022-08-27T09:56:09.172Z,21.39
2022-08-27T09:57:08.761Z,22.06
2022-08-27T09:58:08.761Z,22.39
2022-08-27T09:59:08.768Z,22.61
2022-08-27T10:00:08.767Z,21.89
2022-08-27T10:01:08.807Z,22.06
2022-08-27T10:02:11.168Z,22.06
2022-08-27T10:03:08.766Z,22.06
2022-08-27T10:04:08.837Z,22.39
2022-08-27T10:05:08.768Z,22.78
2022-08-27T10:06:08.772Z,23.67
2022-08-27T10:07:08.764Z,22.22
2022-08-27T10:08:08.771Z,22.39
2022-08-27T10:09:08.768Z,21.89
2022-08-27T10:10:08.777Z,22.22
2022-08-27T10:11:08.772Z,22.39
2022-08-27T10:12:08.769Z,22.61
2022-08-27T10:13:09.167Z,23.28
2022-08-27T10:14:08.772Z,22.78
2022-08-27T10:15:08.766Z,22.22
2022-08-27T10:16:08.790Z,21.72
2022-08-27T10:17:08.772Z,22.61
2022-08-27T10:18:08.859Z,22.06
2022-08-27T10:19:08.770Z,22.39
2022-08-27T10:20:08.842Z,23.11
2022-08-27T10:21:08.775Z,22.94
2022-08-27T10:22:08.771Z,22.39
2022-08-27T10:23:08.771Z,21.72
2022-08-27T10:24:08.761Z,22.06
2022-08-27T10:25:08.767Z,22.06
2022-08-27T10:26:08.761Z,22.22
2022-08-27T10:27:08.766Z,23.11
2022-08-27T10:28:08.770Z,23.11
2022-08-27T10:29:08.778Z,22.22
2022-08-27T10:30:08.860Z,22.94
2022-08-27T10:31:08.780Z,22.61
2022-08-27T10:32:08.810Z,22.78
2022-08-27T10:33:08.801Z,23.67
2022-08-27T10:34:08.804Z,23.67
2022-08-27T10:35:08.775Z,23.67
2022-08-27T10:36:08.769Z,23.67
2022-08-27T10:37:08.768Z,24
2022-08-27T10:38:08.843Z,24.17
2022-08-27T10:39:08.778Z,24.67
2022-08-27T10:40:08.872Z,23.67
2022-08-27T10:41:08.777Z,22.78
2022-08-27T10:42:08.771Z,22.94
2022-08-27T10:43:08.785Z,23.11
2022-08-27T10:44:08.786Z,24.17
2022-08-27T10:45:08.777Z,23.83
2022-08-27T10:46:08.824Z,24
2022-08-27T10:47:08.784Z,22.22
2022-08-27T10:48:08.830Z,22.39
2022-08-27T10:49:08.776Z,22.22
2022-08-27T10:50:08.870Z,21.89
2022-08-27T10:51:08.775Z,21.89
2022-08-27T10:52:08.782Z,22.06
2022-08-27T10:53:08.781Z,22.06
2022-08-27T10:54:08.786Z,22.22
2022-08-27T10:55:08.780Z,22.61
2022-08-27T10:56:08.786Z,22.78
2022-08-27T10:57:28.833Z,24.33
2022-08-27T10:58:08.792Z,24.17
2022-08-27T10:59:08.793Z,23.11
2022-08-27T11:00:08.790Z,23.44
2022-08-27T11:01:08.807Z,23.44
2022-08-27T11:02:08.831Z,23.67
2022-08-27T11:03:08.795Z,23.11
2022-08-27T11:04:08.794Z,23.11
2022-08-27T11:05:08.798Z,23.28
2022-08-27T11:06:08.785Z,24.22
2022-08-27T11:07:08.788Z,24.33
2022-08-27T11:08:08.808Z,24.89
2022-08-27T11:09:08.805Z,24.33
2022-08-27T11:10:08.801Z,24
2022-08-27T11:11:41.649Z,23.28
2022-08-27T11:12:16.101Z,22.94
2022-08-27T11:13:08.793Z,23.83
2022-08-27T11:14:08.792Z,24.33
2022-08-27T11:15:12.701Z,24.67
2022-08-27T11:16:08.829Z,24.67
2022-08-27T11:17:08.795Z,25.06
2022-08-27T11:18:08.861Z,24.89
2022-08-27T11:19:08.796Z,24.33
2022-08-27T11:20:08.803Z,25.06
2022-08-27T11:21:08.802Z,23.83
2022-08-27T11:22:12.322Z,24.33
2022-08-27T11:23:08.800Z,23.83
2022-08-27T11:24:08.797Z,24.33
2022-08-27T11:25:08.805Z,24.67
2022-08-27T11:26:08.804Z,24.89
2022-08-27T11:27:08.803Z,24.5
2022-08-27T11:28:08.806Z,23.67
2022-08-27T11:29:08.806Z,23.28
2022-08-27T11:30:08.800Z,24.17
2022-08-27T11:31:08.872Z,24.33
2022-08-27T11:32:08.806Z,24.5
2022-08-27T11:33:11.008Z,25.06
2022-08-27T11:34:08.809Z,24.67
2022-08-27T11:35:08.798Z,25.44
2022-08-27T11:36:08.809Z,25.61
2022-08-27T11:37:08.800Z,24.67
2022-08-27T11:38:08.816Z,25.06
2022-08-27T11:39:08.812Z,26
2022-08-27T11:40:08.899Z,26.56
2022-08-27T11:41:08.817Z,25.06
2022-08-27T11:42:08.806Z,24.67
2022-08-27T11:43:08.820Z,24.17
2022-08-27T11:44:08.817Z,23.83
2022-08-27T11:45:08.817Z,23.83
2022-08-27T11:46:08.820Z,24.67
2022-08-27T11:47:08.912Z,25.44
2022-08-27T11:48:08.818Z,24.89
2022-08-27T11:49:08.823Z,23.83
2022-08-27T11:50:08.835Z,24.33
2022-08-27T11:51:08.811Z,24.67
2022-08-27T11:52:08.837Z,24.5
2022-08-27T11:53:08.817Z,24.67
2022-08-27T11:54:08.818Z,24.89
2022-08-27T11:55:08.813Z,25.22
2022-08-27T11:56:08.818Z,24.89
2022-08-27T11:57:08.819Z,24.5
2022-08-27T11:58:08.817Z,24.67
2022-08-27T11:59:08.814Z,24.5
2022-08-27T12:00:08.864Z,24
2022-08-27T12:01:08.812Z,24.5
2022-08-27T12:02:08.817Z,24.33
2022-08-27T12:03:08.840Z,24.89
2022-08-27T12:04:08.841Z,25.44
2022-08-27T12:05:08.820Z,26
2022-08-27T12:06:08.823Z,25.78
2022-08-27T12:07:08.814Z,25.22
2022-08-27T12:08:08.817Z,25.06
2022-08-27T12:09:08.821Z,25.06
2022-08-27T12:10:08.877Z,24.33
2022-08-27T12:11:08.829Z,23.83
2022-08-27T12:12:08.828Z,24
2022-08-27T12:13:08.819Z,24.33
2022-08-27T12:14:08.819Z,24.67
2022-08-27T12:15:08.820Z,24.89
2022-08-27T12:16:08.864Z,24.89
2022-08-27T12:17:08.821Z,24.5
2022-08-27T12:18:08.829Z,24.33
2022-08-27T12:19:08.821Z,24.33
2022-08-27T12:20:08.896Z,24.33
2022-08-27T12:21:08.817Z,24.33
2022-08-27T12:22:08.821Z,24.67
2022-08-27T12:23:08.823Z,24.33
2022-08-27T12:24:08.828Z,24.33
2022-08-27T12:25:08.821Z,24.89
2022-08-27T12:26:08.819Z,24.89
2022-08-27T12:27:08.828Z,25.06
2022-08-27T12:28:08.825Z,24.67
2022-08-27T12:29:08.826Z,24.89
2022-08-27T12:30:08.825Z,25.44
2022-08-27T12:31:08.923Z,26
2022-08-27T12:32:08.829Z,25.44
2022-08-27T12:33:08.823Z,25.44
2022-08-27T12:34:08.829Z,25.78
2022-08-27T12:35:08.834Z,26.17
2022-08-27T12:36:08.848Z,26.56
2022-08-27T12:37:08.830Z,26.33
2022-08-27T12:38:08.827Z,26
2022-08-27T12:39:08.830Z,26
2022-08-27T12:40:08.940Z,24.94
2022-08-27T12:41:08.847Z,24.89
2022-08-27T12:42:08.834Z,24.5
2022-08-27T12:43:08.837Z,25.06
2022-08-27T12:44:08.838Z,25.06
2022-08-27T12:45:08.832Z,25.44
2022-08-27T12:46:08.831Z,25.06
2022-08-27T12:47:08.881Z,24.61
2022-08-27T12:48:08.917Z,25.44
2022-08-27T12:49:10.147Z,25.06
2022-08-27T12:50:08.834Z,25.44
2022-08-27T12:51:08.850Z,25.78
2022-08-27T12:52:08.844Z,25.22
2022-08-27T12:53:08.844Z,25.44
2022-08-27T12:54:08.851Z,26.17
2022-08-27T12:55:08.846Z,26.56